DLH2GY EFTU-LSZH
Flight info
| Callsign | DLH2GY |
|---|---|
| Flight time | 2h 28m |
| Altitude | 36000 |
| Route | EMPOM DCT NISIX DCT SALLO/N0453F370 M726 ROSOK/N0448F360 DCT OTMON DCT SWALM DCT OMOGI/N0452F370 T721 LAMGO/N0415F270 T721 RILAX |
| Aircraft | A321/M-SDE3FGHIRWY/LB1 |
Departure
| Time | 2026-05-05 16:18 |
|---|---|
| Airport | Turku Airport (EFTU) |
Arrival
| Time | 2026-05-05 18:46 |
|---|---|
| Airport | Zürich Airport (LSZH) |
| Time | Latitude | Longitude | Altitude | Speed | Heading |
|---|---|---|---|---|---|
| 2026-05-05 15:53 | 60.51179 | 22.27335 | 174 ft | 0 kts | 149° |
| 2026-05-05 16:11 | 60.51181 | 22.27333 | 173 ft | 2 kts | 149° |
| 2026-05-05 16:12 | 60.51184 | 22.27330 | 173 ft | 0 kts | 146° |
| 2026-05-05 16:12 | 60.51179 | 22.27333 | 174 ft | 0 kts | 163° |
| 2026-05-05 16:13 | 60.51305 | 22.27315 | 158 ft | 11 kts | 32° |
| 2026-05-05 16:13 | 60.51341 | 22.27465 | 156 ft | 14 kts | 86° |
| 2026-05-05 16:13 | 60.51349 | 22.27682 | 154 ft | 17 kts | 84° |
| 2026-05-05 16:14 | 60.51373 | 22.28180 | 147 ft | 16 kts | 85° |
| 2026-05-05 16:14 | 60.51403 | 22.28515 | 146 ft | 7 kts | 40° |
| 2026-05-05 16:15 | 60.51413 | 22.28526 | 147 ft | 0 kts | 25° |
| 2026-05-05 16:16 | 60.51467 | 22.28535 | 148 ft | 10 kts | 360° |
| 2026-05-05 16:17 | 60.51504 | 22.28357 | 149 ft | 14 kts | 266° |
| 2026-05-05 16:17 | 60.51471 | 22.27635 | 152 ft | 90 kts | 264° |
| 2026-05-05 16:18 | 60.51285 | 22.23751 | 847 ft | 153 kts | 266° |
| 2026-05-05 16:18 | 60.51197 | 22.21580 | 1656 ft | 162 kts | 266° |
| 2026-05-05 16:18 | 60.50993 | 22.16610 | 2667 ft | 185 kts | 266° |
| 2026-05-05 16:19 | 60.50852 | 22.13966 | 3309 ft | 190 kts | 261° |
| 2026-05-05 16:19 | 60.50258 | 22.11563 | 3881 ft | 203 kts | 232° |
| 2026-05-05 16:19 | 60.47609 | 22.07914 | 4535 ft | 251 kts | 218° |
| 2026-05-05 16:20 | 60.44737 | 22.03755 | 6159 ft | 262 kts | 219° |
| 2026-05-05 16:20 | 60.41762 | 21.99499 | 7929 ft | 263 kts | 219° |
| 2026-05-05 16:21 | 60.38720 | 21.95200 | 9526 ft | 272 kts | 219° |
| 2026-05-05 16:22 | 60.33723 | 21.88116 | 10900 ft | 315 kts | 219° |
| 2026-05-05 16:22 | 60.30034 | 21.82882 | 11887 ft | 334 kts | 219° |
| 2026-05-05 16:23 | 60.26191 | 21.77626 | 13510 ft | 334 kts | 218° |
| 2026-05-05 16:23 | 60.24257 | 21.74990 | 14188 ft | 335 kts | 219° |
| 2026-05-05 16:23 | 60.20435 | 21.69696 | 15519 ft | 335 kts | 220° |
| 2026-05-05 16:24 | 60.18543 | 21.66952 | 16201 ft | 335 kts | 221° |
| 2026-05-05 16:24 | 60.16661 | 21.64160 | 16866 ft | 336 kts | 222° |
| 2026-05-05 16:24 | 60.12916 | 21.58582 | 18086 ft | 338 kts | 222° |
| 2026-05-05 16:25 | 60.11017 | 21.55774 | 18599 ft | 340 kts | 222° |
| 2026-05-05 16:25 | 60.07171 | 21.50128 | 19564 ft | 345 kts | 222° |
| 2026-05-05 16:25 | 60.05223 | 21.47282 | 20035 ft | 347 kts | 221° |
| 2026-05-05 16:26 | 60.01281 | 21.41548 | 20984 ft | 352 kts | 221° |
| 2026-05-05 16:26 | 59.97315 | 21.35800 | 21908 ft | 357 kts | 221° |
| 2026-05-05 16:27 | 59.95289 | 21.32869 | 22369 ft | 359 kts | 221° |
| 2026-05-05 16:27 | 59.93256 | 21.29927 | 22830 ft | 362 kts | 221° |
| 2026-05-05 16:27 | 59.91206 | 21.26957 | 23279 ft | 364 kts | 221° |
| 2026-05-05 16:27 | 59.89176 | 21.24018 | 23662 ft | 367 kts | 221° |
| 2026-05-05 16:28 | 59.87095 | 21.21018 | 24036 ft | 369 kts | 221° |
| 2026-05-05 16:28 | 59.85005 | 21.18018 | 24393 ft | 371 kts | 221° |
| 2026-05-05 16:28 | 59.82902 | 21.15002 | 24763 ft | 374 kts | 221° |
| 2026-05-05 16:28 | 59.80811 | 21.12002 | 25114 ft | 376 kts | 221° |
| 2026-05-05 16:29 | 59.78679 | 21.08946 | 25473 ft | 378 kts | 221° |
| 2026-05-05 16:29 | 59.76536 | 21.05873 | 25831 ft | 381 kts | 221° |
| 2026-05-05 16:29 | 59.74376 | 21.02787 | 26180 ft | 383 kts | 221° |
| 2026-05-05 16:29 | 59.72199 | 20.99689 | 26527 ft | 385 kts | 221° |
| 2026-05-05 16:30 | 59.70033 | 20.96612 | 26875 ft | 388 kts | 221° |
| 2026-05-05 16:30 | 59.67826 | 20.93483 | 27218 ft | 390 kts | 221° |
| 2026-05-05 16:30 | 59.65601 | 20.90338 | 27536 ft | 393 kts | 221° |
| 2026-05-05 16:30 | 59.63402 | 20.87233 | 27844 ft | 395 kts | 221° |
| 2026-05-05 16:31 | 59.61155 | 20.84063 | 28162 ft | 397 kts | 221° |
| 2026-05-05 16:31 | 59.58900 | 20.80884 | 28440 ft | 399 kts | 221° |
| 2026-05-05 16:31 | 59.56635 | 20.77687 | 28691 ft | 401 kts | 221° |
| 2026-05-05 16:31 | 59.54360 | 20.74481 | 29002 ft | 402 kts | 221° |
| 2026-05-05 16:32 | 59.52076 | 20.71283 | 29400 ft | 401 kts | 221° |
| 2026-05-05 16:32 | 59.49824 | 20.68138 | 29786 ft | 401 kts | 221° |
| 2026-05-05 16:32 | 59.47552 | 20.64969 | 30119 ft | 400 kts | 221° |
| 2026-05-05 16:32 | 59.45276 | 20.61797 | 30416 ft | 400 kts | 221° |
| 2026-05-05 16:33 | 59.43020 | 20.58654 | 30705 ft | 400 kts | 221° |
| 2026-05-05 16:33 | 59.40744 | 20.55487 | 30996 ft | 400 kts | 221° |
| 2026-05-05 16:33 | 59.38463 | 20.52319 | 31276 ft | 400 kts | 221° |
| 2026-05-05 16:33 | 59.36183 | 20.49159 | 31569 ft | 400 kts | 221° |
| 2026-05-05 16:34 | 59.33904 | 20.46007 | 31857 ft | 400 kts | 221° |
| 2026-05-05 16:34 | 59.31699 | 20.42797 | 32130 ft | 397 kts | 226° |
| 2026-05-05 16:34 | 59.29696 | 20.39088 | 32391 ft | 395 kts | 229° |
| 2026-05-05 16:34 | 59.27723 | 20.35343 | 32663 ft | 396 kts | 229° |
| 2026-05-05 16:35 | 59.25735 | 20.31584 | 32948 ft | 396 kts | 229° |
| 2026-05-05 16:35 | 59.23775 | 20.27898 | 33213 ft | 396 kts | 228° |
| 2026-05-05 16:35 | 59.21782 | 20.24168 | 33484 ft | 396 kts | 228° |
| 2026-05-05 16:35 | 59.19783 | 20.20437 | 33754 ft | 396 kts | 228° |
| 2026-05-05 16:36 | 59.17792 | 20.16720 | 33989 ft | 396 kts | 228° |
| 2026-05-05 16:36 | 59.15826 | 20.13046 | 34198 ft | 397 kts | 228° |
| 2026-05-05 16:36 | 59.13827 | 20.09310 | 34384 ft | 398 kts | 228° |
| 2026-05-05 16:36 | 59.11824 | 20.05573 | 34574 ft | 399 kts | 228° |
| 2026-05-05 16:37 | 59.09811 | 20.01828 | 34766 ft | 399 kts | 228° |
| 2026-05-05 16:37 | 59.07822 | 19.98143 | 34957 ft | 400 kts | 228° |
| 2026-05-05 16:37 | 59.05796 | 19.94399 | 35136 ft | 401 kts | 227° |
| 2026-05-05 16:37 | 59.03761 | 19.90643 | 35340 ft | 402 kts | 227° |
| 2026-05-05 16:38 | 59.01759 | 19.86945 | 35520 ft | 402 kts | 227° |
| 2026-05-05 16:38 | 58.99727 | 19.83196 | 35713 ft | 403 kts | 227° |
| 2026-05-05 16:38 | 58.97684 | 19.79432 | 35834 ft | 405 kts | 227° |
| 2026-05-05 16:38 | 58.95636 | 19.75666 | 35858 ft | 406 kts | 227° |
| 2026-05-05 16:39 | 58.91558 | 19.68194 | 35864 ft | 406 kts | 227° |
| 2026-05-05 16:39 | 58.87436 | 19.60677 | 35862 ft | 407 kts | 227° |
| 2026-05-05 16:40 | 58.83328 | 19.53208 | 35866 ft | 407 kts | 227° |
| 2026-05-05 16:40 | 58.79193 | 19.45709 | 35862 ft | 407 kts | 227° |
| 2026-05-05 16:41 | 58.75077 | 19.38269 | 35864 ft | 408 kts | 227° |
| 2026-05-05 16:41 | 58.70911 | 19.30783 | 35857 ft | 409 kts | 227° |
| 2026-05-05 16:42 | 58.66774 | 19.23361 | 35862 ft | 409 kts | 227° |
| 2026-05-05 16:42 | 58.62609 | 19.15903 | 35875 ft | 409 kts | 227° |
| 2026-05-05 16:43 | 58.58448 | 19.08473 | 35874 ft | 410 kts | 227° |
| 2026-05-05 16:43 | 58.54261 | 19.01044 | 35875 ft | 410 kts | 227° |
| 2026-05-05 16:44 | 58.50090 | 18.93670 | 35875 ft | 410 kts | 227° |
| 2026-05-05 16:44 | 58.45879 | 18.86252 | 35878 ft | 410 kts | 227° |
| 2026-05-05 16:45 | 58.41695 | 18.78892 | 35879 ft | 411 kts | 227° |
| 2026-05-05 16:45 | 58.37476 | 18.71496 | 35878 ft | 411 kts | 227° |
| 2026-05-05 16:46 | 58.33255 | 18.64119 | 35882 ft | 411 kts | 227° |
| 2026-05-05 16:46 | 58.29053 | 18.56807 | 35879 ft | 412 kts | 227° |
| 2026-05-05 16:47 | 58.24807 | 18.49447 | 35881 ft | 412 kts | 226° |
| 2026-05-05 16:47 | 58.20589 | 18.42157 | 35880 ft | 412 kts | 226° |
| 2026-05-05 16:48 | 58.16341 | 18.34834 | 35879 ft | 413 kts | 226° |
| 2026-05-05 16:48 | 58.12100 | 18.27548 | 35880 ft | 413 kts | 226° |
| 2026-05-05 16:49 | 58.07824 | 18.20237 | 35882 ft | 413 kts | 226° |
| 2026-05-05 16:49 | 58.03569 | 18.12988 | 35884 ft | 414 kts | 226° |
| 2026-05-05 16:50 | 57.99285 | 18.05701 | 35885 ft | 414 kts | 226° |
| 2026-05-05 16:50 | 57.95018 | 17.98471 | 35886 ft | 415 kts | 226° |
| 2026-05-05 16:51 | 57.90718 | 17.91207 | 35887 ft | 415 kts | 226° |
| 2026-05-05 16:51 | 57.86432 | 17.83988 | 35889 ft | 415 kts | 226° |
| 2026-05-05 16:52 | 57.82107 | 17.76746 | 35889 ft | 416 kts | 226° |
| 2026-05-05 16:52 | 57.77797 | 17.69552 | 35892 ft | 416 kts | 226° |
| 2026-05-05 16:53 | 57.73466 | 17.62337 | 35893 ft | 416 kts | 226° |
| 2026-05-05 16:53 | 57.69152 | 17.55170 | 35891 ft | 417 kts | 226° |
| 2026-05-05 16:54 | 57.64797 | 17.47978 | 35895 ft | 417 kts | 225° |
| 2026-05-05 16:54 | 57.60464 | 17.40841 | 35893 ft | 418 kts | 225° |
| 2026-05-05 16:55 | 57.56094 | 17.33660 | 35893 ft | 418 kts | 225° |
| 2026-05-05 16:55 | 57.51751 | 17.26518 | 35889 ft | 418 kts | 225° |
| 2026-05-05 16:56 | 57.47368 | 17.19357 | 35890 ft | 419 kts | 225° |
| 2026-05-05 16:56 | 57.42994 | 17.12250 | 35891 ft | 419 kts | 225° |
| 2026-05-05 16:57 | 57.38595 | 17.05111 | 35900 ft | 420 kts | 225° |
| 2026-05-05 16:57 | 57.34185 | 16.97989 | 35895 ft | 420 kts | 225° |
| 2026-05-05 16:58 | 57.29770 | 16.90896 | 35889 ft | 420 kts | 225° |
| 2026-05-05 16:58 | 57.25381 | 16.83839 | 35893 ft | 420 kts | 225° |
| 2026-05-05 16:59 | 57.20952 | 16.76731 | 35894 ft | 421 kts | 225° |
| 2026-05-05 16:59 | 57.16549 | 16.69689 | 35892 ft | 421 kts | 225° |
| 2026-05-05 17:00 | 57.12126 | 16.62662 | 35888 ft | 421 kts | 224° |
| 2026-05-05 17:00 | 57.07689 | 16.55636 | 35889 ft | 420 kts | 225° |
| 2026-05-05 17:01 | 57.03250 | 16.48629 | 35895 ft | 420 kts | 224° |
| 2026-05-05 17:01 | 56.98833 | 16.41677 | 35884 ft | 420 kts | 224° |
| 2026-05-05 17:02 | 56.94389 | 16.34689 | 35880 ft | 420 kts | 224° |
| 2026-05-05 17:02 | 56.89970 | 16.27773 | 35874 ft | 420 kts | 224° |
| 2026-05-05 17:03 | 56.85510 | 16.20839 | 35876 ft | 420 kts | 224° |
| 2026-05-05 17:03 | 56.81051 | 16.13907 | 35874 ft | 421 kts | 224° |
| 2026-05-05 17:04 | 56.76587 | 16.06980 | 35874 ft | 421 kts | 224° |
| 2026-05-05 17:04 | 56.72145 | 16.00128 | 35880 ft | 421 kts | 224° |
| 2026-05-05 17:05 | 56.67686 | 15.93264 | 35886 ft | 421 kts | 224° |
| 2026-05-05 17:05 | 56.63214 | 15.86401 | 35893 ft | 420 kts | 224° |
| 2026-05-05 17:06 | 56.58735 | 15.79537 | 35900 ft | 420 kts | 224° |
| 2026-05-05 17:06 | 56.54282 | 15.72741 | 35905 ft | 420 kts | 224° |
| 2026-05-05 17:07 | 56.50543 | 15.67060 | 35905 ft | 420 kts | 224° |
| 2026-05-05 17:07 | 56.45329 | 15.59171 | 35909 ft | 420 kts | 224° |
| 2026-05-05 17:08 | 56.40863 | 15.52435 | 35911 ft | 420 kts | 224° |
| 2026-05-05 17:08 | 56.37103 | 15.46776 | 35910 ft | 419 kts | 223° |
| 2026-05-05 17:09 | 56.32639 | 15.40058 | 35909 ft | 419 kts | 224° |
| 2026-05-05 17:09 | 56.28156 | 15.33330 | 35907 ft | 419 kts | 223° |
| 2026-05-05 17:10 | 56.23687 | 15.26666 | 35908 ft | 419 kts | 223° |
| 2026-05-05 17:10 | 56.19188 | 15.19980 | 35908 ft | 419 kts | 223° |
| 2026-05-05 17:11 | 56.14710 | 15.13343 | 35911 ft | 419 kts | 223° |
| 2026-05-05 17:11 | 56.10204 | 15.06670 | 35911 ft | 419 kts | 223° |
| 2026-05-05 17:12 | 56.05725 | 15.00070 | 35910 ft | 419 kts | 223° |
| 2026-05-05 17:12 | 56.01215 | 14.93458 | 35917 ft | 419 kts | 223° |
| 2026-05-05 17:13 | 55.96707 | 14.86856 | 35923 ft | 418 kts | 223° |
| 2026-05-05 17:13 | 55.92223 | 14.80313 | 35919 ft | 418 kts | 223° |
| 2026-05-05 17:14 | 55.88701 | 14.75189 | 35918 ft | 418 kts | 223° |
| 2026-05-05 17:14 | 55.84212 | 14.68686 | 35926 ft | 418 kts | 223° |
| 2026-05-05 17:15 | 55.79687 | 14.62131 | 35923 ft | 418 kts | 223° |
| 2026-05-05 17:15 | 55.75197 | 14.55652 | 35926 ft | 418 kts | 223° |
| 2026-05-05 17:16 | 55.70682 | 14.49149 | 35924 ft | 418 kts | 223° |
| 2026-05-05 17:16 | 55.66185 | 14.42692 | 35926 ft | 417 kts | 222° |
| 2026-05-05 17:17 | 55.61686 | 14.36266 | 35929 ft | 417 kts | 222° |
| 2026-05-05 17:17 | 55.57166 | 14.29824 | 35934 ft | 417 kts | 222° |
| 2026-05-05 17:18 | 55.52639 | 14.23396 | 35933 ft | 416 kts | 222° |
| 2026-05-05 17:18 | 55.48151 | 14.17032 | 35931 ft | 416 kts | 222° |
| 2026-05-05 17:19 | 55.43649 | 14.10674 | 35930 ft | 415 kts | 222° |
| 2026-05-05 17:19 | 55.39132 | 14.04319 | 35929 ft | 415 kts | 222° |
| 2026-05-05 17:20 | 55.34611 | 13.97976 | 35928 ft | 415 kts | 222° |
| 2026-05-05 17:20 | 55.30115 | 13.91691 | 35930 ft | 415 kts | 222° |
| 2026-05-05 17:21 | 55.25619 | 13.85408 | 35932 ft | 415 kts | 222° |
| 2026-05-05 17:22 | 55.18834 | 13.75972 | 35931 ft | 414 kts | 222° |
| 2026-05-05 17:22 | 55.14340 | 13.69758 | 35932 ft | 414 kts | 222° |
| 2026-05-05 17:23 | 55.09803 | 13.63493 | 35930 ft | 414 kts | 222° |
| 2026-05-05 17:23 | 55.05308 | 13.57298 | 35935 ft | 413 kts | 222° |
| 2026-05-05 17:24 | 55.00784 | 13.51072 | 35934 ft | 413 kts | 222° |
| 2026-05-05 17:24 | 54.96264 | 13.44889 | 35936 ft | 413 kts | 222° |
| 2026-05-05 17:25 | 54.91883 | 13.38558 | 35939 ft | 409 kts | 230° |
| 2026-05-05 17:25 | 54.88475 | 13.30699 | 35941 ft | 406 kts | 237° |
| 2026-05-05 17:26 | 54.85253 | 13.22709 | 35936 ft | 406 kts | 237° |
| 2026-05-05 17:26 | 54.82003 | 13.14688 | 35943 ft | 406 kts | 237° |
| 2026-05-05 17:27 | 54.78755 | 13.06708 | 35943 ft | 406 kts | 237° |
| 2026-05-05 17:27 | 54.75488 | 12.98714 | 35946 ft | 406 kts | 237° |
| 2026-05-05 17:28 | 54.72237 | 12.90761 | 35946 ft | 406 kts | 237° |
| 2026-05-05 17:28 | 54.68967 | 12.82783 | 35949 ft | 406 kts | 237° |
| 2026-05-05 17:29 | 54.65707 | 12.74887 | 35945 ft | 406 kts | 237° |
| 2026-05-05 17:29 | 54.62424 | 12.66942 | 35949 ft | 405 kts | 237° |
| 2026-05-05 17:30 | 54.59148 | 12.59056 | 35947 ft | 405 kts | 237° |
| 2026-05-05 17:30 | 54.55527 | 12.51649 | 35948 ft | 409 kts | 224° |
| 2026-05-05 17:31 | 54.50980 | 12.45735 | 35946 ft | 411 kts | 220° |
| 2026-05-05 17:31 | 54.46380 | 12.39856 | 35941 ft | 411 kts | 220° |
| 2026-05-05 17:32 | 54.41794 | 12.33999 | 35936 ft | 410 kts | 220° |
| 2026-05-05 17:32 | 54.37231 | 12.28191 | 35942 ft | 410 kts | 220° |
| 2026-05-05 17:33 | 54.32645 | 12.22370 | 35941 ft | 410 kts | 220° |
| 2026-05-05 17:33 | 54.28080 | 12.16587 | 35943 ft | 410 kts | 220° |
| 2026-05-05 17:34 | 54.23488 | 12.10783 | 35943 ft | 409 kts | 220° |
| 2026-05-05 17:34 | 54.18812 | 12.05423 | 35942 ft | 411 kts | 214° |
| 2026-05-05 17:35 | 54.13880 | 12.00452 | 35934 ft | 411 kts | 214° |
| 2026-05-05 17:35 | 54.08981 | 11.95536 | 35934 ft | 410 kts | 214° |
| 2026-05-05 17:36 | 54.04058 | 11.90601 | 35935 ft | 410 kts | 214° |
| 2026-05-05 17:36 | 53.99173 | 11.85694 | 35930 ft | 410 kts | 214° |
| 2026-05-05 17:37 | 53.94255 | 11.80776 | 35940 ft | 409 kts | 214° |
| 2026-05-05 17:37 | 53.89344 | 11.75880 | 35927 ft | 409 kts | 214° |
| 2026-05-05 17:38 | 53.84452 | 11.71018 | 35940 ft | 409 kts | 214° |
| 2026-05-05 17:38 | 53.79535 | 11.66149 | 35929 ft | 409 kts | 214° |
| 2026-05-05 17:39 | 53.74636 | 11.61314 | 35935 ft | 408 kts | 214° |
| 2026-05-05 17:39 | 53.69709 | 11.56459 | 35931 ft | 408 kts | 214° |
| 2026-05-05 17:40 | 53.64831 | 11.51659 | 35916 ft | 409 kts | 214° |
| 2026-05-05 17:40 | 53.59908 | 11.46832 | 35913 ft | 409 kts | 214° |
| 2026-05-05 17:41 | 53.54977 | 11.42012 | 35920 ft | 409 kts | 214° |
| 2026-05-05 17:41 | 53.50073 | 11.37242 | 35914 ft | 409 kts | 214° |
| 2026-05-05 17:42 | 53.45139 | 11.32438 | 35911 ft | 409 kts | 214° |
| 2026-05-05 17:42 | 53.40233 | 11.27680 | 35913 ft | 409 kts | 213° |
| 2026-05-05 17:43 | 53.35291 | 11.22898 | 35906 ft | 409 kts | 213° |
| 2026-05-05 17:43 | 53.30355 | 11.18135 | 35905 ft | 409 kts | 213° |
| 2026-05-05 17:44 | 53.25447 | 11.13408 | 35910 ft | 409 kts | 213° |
| 2026-05-05 17:44 | 53.20502 | 11.08657 | 35916 ft | 407 kts | 213° |
| 2026-05-05 17:45 | 53.15597 | 11.03964 | 35915 ft | 406 kts | 213° |
| 2026-05-05 17:45 | 53.10714 | 10.99317 | 35896 ft | 406 kts | 212° |
| 2026-05-05 17:46 | 53.05802 | 10.94647 | 35906 ft | 406 kts | 212° |
| 2026-05-05 17:46 | 53.00913 | 10.89999 | 35891 ft | 407 kts | 212° |
| 2026-05-05 17:47 | 52.95980 | 10.85329 | 35899 ft | 407 kts | 212° |
| 2026-05-05 17:47 | 52.91076 | 10.80712 | 35897 ft | 407 kts | 212° |
| 2026-05-05 17:48 | 52.86145 | 10.76070 | 35884 ft | 407 kts | 212° |
| 2026-05-05 17:48 | 52.81243 | 10.71466 | 35893 ft | 407 kts | 212° |
| 2026-05-05 17:49 | 52.76306 | 10.66833 | 35895 ft | 407 kts | 212° |
| 2026-05-05 17:49 | 52.71389 | 10.62247 | 35884 ft | 406 kts | 211° |
| 2026-05-05 17:50 | 52.66482 | 10.57686 | 35878 ft | 407 kts | 211° |
| 2026-05-05 17:50 | 52.61622 | 10.53161 | 35874 ft | 407 kts | 211° |
| 2026-05-05 17:51 | 52.56685 | 10.48582 | 35881 ft | 407 kts | 211° |
| 2026-05-05 17:51 | 52.51738 | 10.43996 | 35877 ft | 408 kts | 211° |
| 2026-05-05 17:52 | 52.46809 | 10.39451 | 35876 ft | 408 kts | 211° |
| 2026-05-05 17:52 | 52.41845 | 10.34889 | 35881 ft | 408 kts | 211° |
| 2026-05-05 17:53 | 52.36912 | 10.30360 | 35877 ft | 408 kts | 211° |
| 2026-05-05 17:53 | 52.31976 | 10.25850 | 35882 ft | 408 kts | 210° |
| 2026-05-05 17:54 | 52.27004 | 10.21314 | 35881 ft | 408 kts | 210° |
| 2026-05-05 17:54 | 52.22056 | 10.16808 | 35880 ft | 408 kts | 210° |
| 2026-05-05 17:55 | 52.17086 | 10.12293 | 35874 ft | 409 kts | 210° |
| 2026-05-05 17:55 | 52.12133 | 10.07814 | 35873 ft | 409 kts | 210° |
| 2026-05-05 17:56 | 52.07153 | 10.03321 | 35868 ft | 409 kts | 210° |
| 2026-05-05 17:56 | 52.02192 | 9.98846 | 35864 ft | 409 kts | 210° |
| 2026-05-05 17:57 | 51.97200 | 9.94352 | 35861 ft | 410 kts | 210° |
| 2026-05-05 17:57 | 51.92196 | 9.89875 | 35857 ft | 410 kts | 209° |
| 2026-05-05 17:58 | 51.87220 | 9.85433 | 35850 ft | 411 kts | 209° |
| 2026-05-05 17:58 | 51.82201 | 9.80959 | 35848 ft | 411 kts | 209° |
| 2026-05-05 17:59 | 51.77222 | 9.76524 | 35854 ft | 411 kts | 209° |
| 2026-05-05 17:59 | 51.72189 | 9.72061 | 35846 ft | 412 kts | 209° |
| 2026-05-05 18:00 | 51.67186 | 9.67627 | 35840 ft | 412 kts | 209° |
| 2026-05-05 18:00 | 51.62148 | 9.63173 | 35831 ft | 412 kts | 208° |
| 2026-05-05 18:01 | 51.57134 | 9.58767 | 35828 ft | 412 kts | 208° |
| 2026-05-05 18:01 | 51.52118 | 9.54360 | 35835 ft | 412 kts | 208° |
| 2026-05-05 18:02 | 51.47077 | 9.49939 | 35831 ft | 412 kts | 208° |
| 2026-05-05 18:02 | 51.42030 | 9.45522 | 35828 ft | 413 kts | 208° |
| 2026-05-05 18:03 | 51.36972 | 9.41114 | 35830 ft | 413 kts | 208° |
| 2026-05-05 18:03 | 51.31940 | 9.36741 | 35828 ft | 413 kts | 207° |
| 2026-05-05 18:04 | 51.26555 | 9.33755 | 35821 ft | 413 kts | 189° |
| 2026-05-05 18:04 | 51.20848 | 9.32388 | 35746 ft | 414 kts | 189° |
| 2026-05-05 18:04 | 51.18037 | 9.31708 | 35516 ft | 413 kts | 189° |
| 2026-05-05 18:05 | 51.15191 | 9.31012 | 35283 ft | 412 kts | 189° |
| 2026-05-05 18:05 | 51.12346 | 9.30313 | 35062 ft | 412 kts | 189° |
| 2026-05-05 18:05 | 51.09510 | 9.29617 | 34838 ft | 412 kts | 188° |
| 2026-05-05 18:05 | 51.06709 | 9.28932 | 34616 ft | 412 kts | 188° |
| 2026-05-05 18:06 | 51.03871 | 9.28243 | 34398 ft | 412 kts | 188° |
| 2026-05-05 18:06 | 50.98198 | 9.26865 | 33960 ft | 412 kts | 188° |
| 2026-05-05 18:06 | 50.95365 | 9.26172 | 33777 ft | 412 kts | 188° |
| 2026-05-05 18:07 | 50.92528 | 9.25475 | 33808 ft | 412 kts | 188° |
| 2026-05-05 18:07 | 50.86886 | 9.24089 | 33802 ft | 413 kts | 187° |
| 2026-05-05 18:08 | 50.81191 | 9.22699 | 33808 ft | 413 kts | 187° |
| 2026-05-05 18:08 | 50.75539 | 9.21342 | 33804 ft | 413 kts | 187° |
| 2026-05-05 18:09 | 50.69837 | 9.19974 | 33804 ft | 413 kts | 187° |
| 2026-05-05 18:09 | 50.64162 | 9.18606 | 33809 ft | 414 kts | 187° |
| 2026-05-05 18:10 | 50.58443 | 9.17222 | 33810 ft | 415 kts | 187° |
| 2026-05-05 18:10 | 50.52727 | 9.15858 | 33814 ft | 415 kts | 187° |
| 2026-05-05 18:11 | 50.47030 | 9.14501 | 33819 ft | 416 kts | 186° |
| 2026-05-05 18:11 | 50.41332 | 9.13153 | 33821 ft | 416 kts | 186° |
| 2026-05-05 18:12 | 50.35634 | 9.11796 | 33815 ft | 417 kts | 186° |
| 2026-05-05 18:12 | 50.29893 | 9.10427 | 33819 ft | 417 kts | 186° |
| 2026-05-05 18:13 | 50.24182 | 9.09076 | 33817 ft | 417 kts | 186° |
| 2026-05-05 18:13 | 50.18427 | 9.07717 | 33822 ft | 417 kts | 186° |
| 2026-05-05 18:14 | 50.12704 | 9.06368 | 33821 ft | 418 kts | 186° |
| 2026-05-05 18:14 | 50.06943 | 9.05014 | 33821 ft | 419 kts | 186° |
| 2026-05-05 18:15 | 50.01204 | 9.03674 | 33818 ft | 419 kts | 186° |
| 2026-05-05 18:15 | 49.96365 | 9.02541 | 33821 ft | 419 kts | 186° |
| 2026-05-05 18:16 | 49.90611 | 9.01192 | 33824 ft | 420 kts | 186° |
| 2026-05-05 18:16 | 49.84811 | 8.99855 | 33834 ft | 421 kts | 186° |
| 2026-05-05 18:17 | 49.79036 | 8.98506 | 33834 ft | 422 kts | 186° |
| 2026-05-05 18:17 | 49.73213 | 8.97155 | 33838 ft | 423 kts | 186° |
| 2026-05-05 18:18 | 49.67367 | 8.95803 | 33835 ft | 424 kts | 186° |
| 2026-05-05 18:18 | 49.61556 | 8.94461 | 33835 ft | 425 kts | 186° |
| 2026-05-05 18:19 | 49.55696 | 8.93116 | 33829 ft | 425 kts | 186° |
| 2026-05-05 18:19 | 49.49861 | 8.91777 | 33834 ft | 426 kts | 187° |
| 2026-05-05 18:20 | 49.43989 | 8.90426 | 33835 ft | 427 kts | 186° |
| 2026-05-05 18:20 | 49.38142 | 8.89100 | 33792 ft | 425 kts | 187° |
| 2026-05-05 18:20 | 49.35259 | 8.88446 | 33463 ft | 416 kts | 187° |
| 2026-05-05 18:21 | 49.32407 | 8.87798 | 33009 ft | 410 kts | 187° |
| 2026-05-05 18:21 | 49.29593 | 8.87151 | 32595 ft | 404 kts | 187° |
| 2026-05-05 18:21 | 49.26829 | 8.86508 | 32213 ft | 397 kts | 187° |
| 2026-05-05 18:21 | 49.24157 | 8.85881 | 31818 ft | 391 kts | 187° |
| 2026-05-05 18:22 | 49.21470 | 8.85281 | 31390 ft | 387 kts | 186° |
| 2026-05-05 18:22 | 49.18804 | 8.84727 | 31031 ft | 385 kts | 186° |
| 2026-05-05 18:22 | 49.16137 | 8.84182 | 30694 ft | 386 kts | 186° |
| 2026-05-05 18:22 | 49.13502 | 8.83634 | 30361 ft | 391 kts | 187° |
| 2026-05-05 18:23 | 49.10780 | 8.83017 | 30057 ft | 399 kts | 188° |
| 2026-05-05 18:23 | 49.08091 | 8.82368 | 29748 ft | 406 kts | 188° |
| 2026-05-05 18:23 | 49.05276 | 8.81675 | 29352 ft | 411 kts | 188° |
| 2026-05-05 18:23 | 49.02429 | 8.80964 | 28991 ft | 415 kts | 188° |
| 2026-05-05 18:24 | 48.99565 | 8.80239 | 28676 ft | 417 kts | 188° |
| 2026-05-05 18:24 | 48.96726 | 8.79582 | 28383 ft | 415 kts | 187° |
| 2026-05-05 18:24 | 48.93873 | 8.78980 | 28091 ft | 410 kts | 187° |
| 2026-05-05 18:24 | 48.91048 | 8.78412 | 27729 ft | 407 kts | 187° |
| 2026-05-05 18:25 | 48.88264 | 8.77864 | 27388 ft | 401 kts | 187° |
| 2026-05-05 18:25 | 48.86430 | 8.77503 | 27171 ft | 397 kts | 188° |
| 2026-05-05 18:25 | 48.82837 | 8.76575 | 26675 ft | 392 kts | 190° |
| 2026-05-05 18:25 | 48.80174 | 8.75798 | 26346 ft | 386 kts | 191° |
| 2026-05-05 18:26 | 48.77557 | 8.75008 | 26039 ft | 381 kts | 191° |
| 2026-05-05 18:26 | 48.74939 | 8.74226 | 25765 ft | 382 kts | 191° |
| 2026-05-05 18:26 | 48.72350 | 8.73495 | 25497 ft | 383 kts | 190° |
| 2026-05-05 18:26 | 48.69712 | 8.72796 | 25239 ft | 383 kts | 189° |
| 2026-05-05 18:27 | 48.67075 | 8.72141 | 24987 ft | 384 kts | 189° |
| 2026-05-05 18:27 | 48.64423 | 8.71479 | 24645 ft | 386 kts | 189° |
| 2026-05-05 18:27 | 48.61795 | 8.70796 | 24340 ft | 387 kts | 190° |
| 2026-05-05 18:27 | 48.59142 | 8.70071 | 24042 ft | 386 kts | 190° |
| 2026-05-05 18:28 | 48.53941 | 8.68674 | 23479 ft | 369 kts | 189° |
| 2026-05-05 18:28 | 48.51453 | 8.68023 | 23259 ft | 357 kts | 190° |
| 2026-05-05 18:28 | 48.49042 | 8.67372 | 23003 ft | 346 kts | 190° |
| 2026-05-05 18:29 | 48.46739 | 8.66754 | 22765 ft | 336 kts | 190° |
| 2026-05-05 18:29 | 48.44456 | 8.66145 | 22447 ft | 328 kts | 190° |
| 2026-05-05 18:29 | 48.42216 | 8.65552 | 22081 ft | 326 kts | 190° |
| 2026-05-05 18:29 | 48.39971 | 8.64962 | 21744 ft | 329 kts | 190° |
| 2026-05-05 18:30 | 48.37739 | 8.64378 | 21415 ft | 330 kts | 190° |
| 2026-05-05 18:30 | 48.35482 | 8.63753 | 21081 ft | 328 kts | 192° |
| 2026-05-05 18:30 | 48.33249 | 8.63073 | 20763 ft | 326 kts | 192° |
| 2026-05-05 18:30 | 48.31058 | 8.62385 | 20474 ft | 323 kts | 193° |
| 2026-05-05 18:31 | 48.28861 | 8.61688 | 20190 ft | 320 kts | 193° |
| 2026-05-05 18:31 | 48.26685 | 8.60996 | 19869 ft | 317 kts | 193° |
| 2026-05-05 18:31 | 48.24537 | 8.60337 | 19508 ft | 313 kts | 193° |
| 2026-05-05 18:31 | 48.22421 | 8.59709 | 19079 ft | 313 kts | 193° |
| 2026-05-05 18:32 | 48.20276 | 8.59080 | 18633 ft | 314 kts | 193° |
| 2026-05-05 18:32 | 48.18126 | 8.58460 | 18219 ft | 314 kts | 193° |
| 2026-05-05 18:32 | 48.16008 | 8.57848 | 17751 ft | 313 kts | 193° |
| 2026-05-05 18:32 | 48.13867 | 8.57211 | 17193 ft | 313 kts | 193° |
| 2026-05-05 18:33 | 48.11733 | 8.56555 | 16663 ft | 312 kts | 194° |
| 2026-05-05 18:33 | 48.09620 | 8.55911 | 16310 ft | 306 kts | 194° |
| 2026-05-05 18:33 | 48.07551 | 8.55297 | 15964 ft | 300 kts | 193° |
| 2026-05-05 18:33 | 48.05539 | 8.54723 | 15616 ft | 295 kts | 193° |
| 2026-05-05 18:34 | 48.03535 | 8.54144 | 15219 ft | 292 kts | 194° |
| 2026-05-05 18:34 | 48.01539 | 8.53550 | 14799 ft | 291 kts | 194° |
| 2026-05-05 18:34 | 47.99575 | 8.52965 | 14387 ft | 289 kts | 194° |
| 2026-05-05 18:34 | 47.97601 | 8.52380 | 13990 ft | 288 kts | 194° |
| 2026-05-05 18:35 | 47.95612 | 8.51789 | 13560 ft | 287 kts | 194° |
| 2026-05-05 18:35 | 47.93682 | 8.51224 | 13106 ft | 286 kts | 191° |
| 2026-05-05 18:35 | 47.91690 | 8.51365 | 12660 ft | 291 kts | 168° |
| 2026-05-05 18:35 | 47.89771 | 8.52369 | 12244 ft | 291 kts | 164° |
| 2026-05-05 18:36 | 47.87883 | 8.53430 | 11853 ft | 288 kts | 164° |
| 2026-05-05 18:36 | 47.86009 | 8.54253 | 11520 ft | 279 kts | 176° |
| 2026-05-05 18:36 | 47.84101 | 8.54376 | 11061 ft | 275 kts | 184° |
| 2026-05-05 18:36 | 47.82168 | 8.54407 | 10581 ft | 277 kts | 183° |
| 2026-05-05 18:37 | 47.80256 | 8.54433 | 10329 ft | 268 kts | 184° |
| 2026-05-05 18:37 | 47.78439 | 8.54465 | 10108 ft | 254 kts | 184° |
| 2026-05-05 18:37 | 47.76737 | 8.54509 | 9856 ft | 243 kts | 184° |
| 2026-05-05 18:37 | 47.75050 | 8.54493 | 9517 ft | 238 kts | 193° |
| 2026-05-05 18:38 | 47.73590 | 8.53536 | 9232 ft | 227 kts | 221° |
| 2026-05-05 18:38 | 47.72410 | 8.51991 | 8775 ft | 225 kts | 224° |
| 2026-05-05 18:38 | 47.71268 | 8.50436 | 8296 ft | 223 kts | 225° |
| 2026-05-05 18:38 | 47.70417 | 8.48554 | 7939 ft | 222 kts | 250° |
| 2026-05-05 18:39 | 47.70257 | 8.46280 | 7592 ft | 225 kts | 277° |
| 2026-05-05 18:39 | 47.70510 | 8.43982 | 7244 ft | 222 kts | 265° |
| 2026-05-05 18:39 | 47.70250 | 8.41794 | 7059 ft | 212 kts | 255° |
| 2026-05-05 18:39 | 47.69900 | 8.39702 | 6717 ft | 209 kts | 254° |
| 2026-05-05 18:40 | 47.69538 | 8.37647 | 6310 ft | 201 kts | 254° |
| 2026-05-05 18:40 | 47.69180 | 8.35666 | 5938 ft | 197 kts | 252° |
| 2026-05-05 18:40 | 47.68462 | 8.33952 | 5495 ft | 200 kts | 221° |
| 2026-05-05 18:40 | 47.67200 | 8.33212 | 5246 ft | 202 kts | 187° |
| 2026-05-05 18:41 | 47.65787 | 8.33481 | 4947 ft | 206 kts | 171° |
| 2026-05-05 18:41 | 47.64408 | 8.33949 | 4693 ft | 199 kts | 174° |
| 2026-05-05 18:41 | 47.63066 | 8.34359 | 4487 ft | 193 kts | 173° |
| 2026-05-05 18:41 | 47.61825 | 8.35021 | 4383 ft | 194 kts | 152° |
| 2026-05-05 18:42 | 47.60795 | 8.36347 | 4265 ft | 198 kts | 142° |
| 2026-05-05 18:42 | 47.59775 | 8.37750 | 4168 ft | 202 kts | 142° |
| 2026-05-05 18:42 | 47.58752 | 8.39158 | 4059 ft | 198 kts | 142° |
| 2026-05-05 18:42 | 47.57764 | 8.40518 | 3991 ft | 186 kts | 141° |
| 2026-05-05 18:43 | 47.56850 | 8.41785 | 3781 ft | 176 kts | 142° |
| 2026-05-05 18:43 | 47.55965 | 8.42991 | 3516 ft | 167 kts | 141° |
| 2026-05-05 18:43 | 47.55155 | 8.44111 | 3344 ft | 154 kts | 142° |
| 2026-05-05 18:43 | 47.54386 | 8.45150 | 3106 ft | 149 kts | 142° |
| 2026-05-05 18:44 | 47.53637 | 8.46172 | 2828 ft | 146 kts | 141° |
| 2026-05-05 18:44 | 47.52882 | 8.47216 | 2676 ft | 149 kts | 140° |
| 2026-05-05 18:44 | 47.52136 | 8.48244 | 2511 ft | 144 kts | 139° |
| 2026-05-05 18:44 | 47.51401 | 8.49250 | 2343 ft | 144 kts | 139° |
| 2026-05-05 18:45 | 47.50677 | 8.50242 | 2137 ft | 140 kts | 139° |
| 2026-05-05 18:45 | 47.49973 | 8.51208 | 1931 ft | 139 kts | 138° |
| 2026-05-05 18:45 | 47.49267 | 8.52172 | 1719 ft | 138 kts | 139° |
| 2026-05-05 18:45 | 47.48557 | 8.53140 | 1528 ft | 140 kts | 139° |
| 2026-05-05 18:46 | 47.47849 | 8.54103 | 1402 ft | 129 kts | 138° |
| 2026-05-05 18:46 | 47.47299 | 8.54850 | 1400 ft | 85 kts | 137° |
| 2026-05-05 18:46 | 47.46915 | 8.55376 | 1403 ft | 59 kts | 136° |
| 2026-05-05 18:46 | 47.46664 | 8.55654 | 1405 ft | 42 kts | 158° |
| 2026-05-05 18:47 | 47.46509 | 8.55705 | 1398 ft | 8 kts | 167° |
| 2026-05-05 18:47 | 47.46454 | 8.55722 | 1397 ft | 5 kts | 168° |
| 2026-05-05 18:47 | 47.46414 | 8.55738 | 1404 ft | 7 kts | 160° |
| 2026-05-05 18:47 | 47.46369 | 8.55776 | 1405 ft | 3 kts | 141° |
| 2026-05-05 18:48 | 47.46355 | 8.55795 | 1402 ft | 0 kts | 137° |
| 2026-05-05 18:50 | 47.46355 | 8.55796 | 1402 ft | 0 kts | 137° |
| 2026-05-05 18:50 | 47.46334 | 8.55824 | 1403 ft | 9 kts | 137° |
| 2026-05-05 18:50 | 47.46276 | 8.55903 | 1402 ft | 13 kts | 137° |
| 2026-05-05 18:51 | 47.46203 | 8.55994 | 1402 ft | 14 kts | 155° |
| 2026-05-05 18:51 | 47.46102 | 8.55991 | 1400 ft | 15 kts | 186° |
| 2026-05-05 18:51 | 47.45990 | 8.55975 | 1401 ft | 17 kts | 188° |
| 2026-05-05 18:51 | 47.45877 | 8.55922 | 1409 ft | 15 kts | 199° |
| 2026-05-05 18:52 | 47.45840 | 8.55903 | 1400 ft | 0 kts | 199° |
| 2026-05-05 18:57 | 47.45839 | 8.55903 | 1398 ft | 1 kts | 199° |
| 2026-05-05 18:57 | 47.45821 | 8.55894 | 1406 ft | 5 kts | 199° |
| 2026-05-05 18:57 | 47.45779 | 8.55878 | 1398 ft | 7 kts | 191° |
| 2026-05-05 18:58 | 47.45721 | 8.55867 | 1403 ft | 9 kts | 185° |
| 2026-05-05 18:58 | 47.45643 | 8.55856 | 1397 ft | 14 kts | 185° |
| 2026-05-05 18:58 | 47.45545 | 8.55840 | 1397 ft | 10 kts | 186° |
| 2026-05-05 18:58 | 47.45497 | 8.55908 | 1401 ft | 12 kts | 96° |
| 2026-05-05 18:59 | 47.45489 | 8.56028 | 1407 ft | 12 kts | 97° |
| 2026-05-05 18:59 | 47.45482 | 8.56117 | 1397 ft | 0 kts | 92° |
| 2026-05-05 18:59 | 47.45482 | 8.56122 | 1397 ft | 0 kts | 92° |
| 2026-05-05 19:00 | 47.45483 | 8.56132 | 1397 ft | 2 kts | 76° |
| 2026-05-05 19:00 | 47.45498 | 8.56147 | 1405 ft | 4 kts | 21° |
| 2026-05-05 19:00 | 47.45518 | 8.56153 | 1405 ft | 0 kts | 11° |